sensor_id;sensor_type;location;lat;lon;timestamp;P1;durP1;ratioP1;P2;durP2;ratioP2
74241;SDS011;62599;49.146;10.426;2023-03-23T00:01:20;1.83;;;0.98;;
74241;SDS011;62599;49.146;10.426;2023-03-23T00:03:51;1.33;;;0.88;;
74241;SDS011;62599;49.146;10.426;2023-03-23T00:06:18;1.45;;;0.98;;
74241;SDS011;62599;49.146;10.426;2023-03-23T00:08:49;1.05;;;0.90;;
74241;SDS011;62599;49.146;10.426;2023-03-23T00:11:18;1.15;;;0.68;;
74241;SDS011;62599;49.146;10.426;2023-03-23T00:13:47;2.15;;;0.93;;
74241;SDS011;62599;49.146;10.426;2023-03-23T00:16:16;2.33;;;1.23;;
74241;SDS011;62599;49.146;10.426;2023-03-23T00:18:47;0.95;;;0.68;;
74241;SDS011;62599;49.146;10.426;2023-03-23T00:21:24;2.67;;;0.77;;
74241;SDS011;62599;49.146;10.426;2023-03-23T00:23:58;2.28;;;1.13;;
74241;SDS011;62599;49.146;10.426;2023-03-23T00:26:27;1.95;;;1.00;;
74241;SDS011;62599;49.146;10.426;2023-03-23T00:28:54;2.55;;;0.90;;
74241;SDS011;62599;49.146;10.426;2023-03-23T00:31:19;2.17;;;1.08;;
74241;SDS011;62599;49.146;10.426;2023-03-23T00:33:45;1.77;;;0.93;;
74241;SDS011;62599;49.146;10.426;2023-03-23T00:36:11;2.87;;;1.20;;
74241;SDS011;62599;49.146;10.426;2023-03-23T00:38:37;2.40;;;0.98;;
74241;SDS011;62599;49.146;10.426;2023-03-23T00:41:04;0.93;;;0.57;;
74241;SDS011;62599;49.146;10.426;2023-03-23T00:43:30;1.70;;;1.05;;
74241;SDS011;62599;49.146;10.426;2023-03-23T00:45:57;3.80;;;1.10;;
74241;SDS011;62599;49.146;10.426;2023-03-23T00:48:26;2.92;;;1.20;;
74241;SDS011;62599;49.146;10.426;2023-03-23T00:50:52;1.40;;;0.63;;
74241;SDS011;62599;49.146;10.426;2023-03-23T00:53:18;1.40;;;0.82;;
74241;SDS011;62599;49.146;10.426;2023-03-23T00:55:44;1.30;;;0.80;;
74241;SDS011;62599;49.146;10.426;2023-03-23T00:58:11;1.77;;;1.15;;
74241;SDS011;62599;49.146;10.426;2023-03-23T01:00:38;1.20;;;0.90;;
74241;SDS011;62599;49.146;10.426;2023-03-23T01:03:04;1.13;;;0.68;;
74241;SDS011;62599;49.146;10.426;2023-03-23T01:05:34;3.15;;;0.90;;
74241;SDS011;62599;49.146;10.426;2023-03-23T01:08:03;2.65;;;1.35;;
74241;SDS011;62599;49.146;10.426;2023-03-23T01:10:29;1.00;;;0.50;;
74241;SDS011;62599;49.146;10.426;2023-03-23T01:12:58;1.63;;;0.88;;
74241;SDS011;62599;49.146;10.426;2023-03-23T01:15:25;1.63;;;0.60;;
74241;SDS011;62599;49.146;10.426;2023-03-23T01:17:52;1.85;;;0.73;;
74241;SDS011;62599;49.146;10.426;2023-03-23T01:20:18;2.47;;;0.90;;
74241;SDS011;62599;49.146;10.426;2023-03-23T01:22:43;0.52;;;0.52;;
74241;SDS011;62599;49.146;10.426;2023-03-23T01:25:09;0.60;;;0.40;;
74241;SDS011;62599;49.146;10.426;2023-03-23T01:27:36;0.55;;;0.35;;
74241;SDS011;62599;49.146;10.426;2023-03-23T01:30:03;0.80;;;0.32;;
74241;SDS011;62599;49.146;10.426;2023-03-23T01:32:30;3.53;;;0.98;;
74241;SDS011;62599;49.146;10.426;2023-03-23T01:34:56;1.80;;;0.82;;
74241;SDS011;62599;49.146;10.426;2023-03-23T01:37:21;1.20;;;0.73;;
74241;SDS011;62599;49.146;10.426;2023-03-23T01:39:51;1.20;;;0.68;;
74241;SDS011;62599;49.146;10.426;2023-03-23T01:42:21;2.92;;;0.93;;
74241;SDS011;62599;49.146;10.426;2023-03-23T01:47:13;3.23;;;0.60;;
74241;SDS011;62599;49.146;10.426;2023-03-23T01:49:41;0.90;;;0.40;;
74241;SDS011;62599;49.146;10.426;2023-03-23T01:52:18;1.13;;;0.68;;
74241;SDS011;62599;49.146;10.426;2023-03-23T01:54:51;1.35;;;0.50;;
74241;SDS011;62599;49.146;10.426;2023-03-23T01:57:20;1.10;;;0.50;;
74241;SDS011;62599;49.146;10.426;2023-03-23T01:59:49;0.95;;;0.70;;
74241;SDS011;62599;49.146;10.426;2023-03-23T02:02:17;8.60;;;0.60;;
74241;SDS011;62599;49.146;10.426;2023-03-23T02:04:45;1.17;;;0.90;;
74241;SDS011;62599;49.146;10.426;2023-03-23T02:07:11;1.70;;;0.60;;
74241;SDS011;62599;49.146;10.426;2023-03-23T02:09:39;1.95;;;0.43;;
74241;SDS011;62599;49.146;10.426;2023-03-23T02:12:04;3.28;;;0.50;;
74241;SDS011;62599;49.146;10.426;2023-03-23T02:14:30;0.95;;;0.77;;
74241;SDS011;62599;49.146;10.426;2023-03-23T02:25:46;0.98;;;0.50;;
74241;SDS011;62599;49.146;10.426;2023-03-23T02:37:07;0.90;;;0.43;;
74241;SDS011;62599;49.146;10.426;2023-03-23T02:39:45;0.95;;;0.60;;
74241;SDS011;62599;49.146;10.426;2023-03-23T02:42:17;1.33;;;0.82;;
74241;SDS011;62599;49.146;10.426;2023-03-23T02:44:48;0.55;;;0.38;;
74241;SDS011;62599;49.146;10.426;2023-03-23T02:47:17;1.52;;;0.50;;
74241;SDS011;62599;49.146;10.426;2023-03-23T02:49:47;1.02;;;0.40;;
74241;SDS011;62599;49.146;10.426;2023-03-23T02:52:21;2.38;;;0.40;;
74241;SDS011;62599;49.146;10.426;2023-03-23T02:54:49;1.98;;;0.98;;
74241;SDS011;62599;49.146;10.426;2023-03-23T02:57:17;1.27;;;0.88;;
74241;SDS011;62599;49.146;10.426;2023-03-23T02:59:43;0.77;;;0.35;;
74241;SDS011;62599;49.146;10.426;2023-03-23T03:08:24;0.65;;;0.40;;
74241;SDS011;62599;49.146;10.426;2023-03-23T03:10:58;2.17;;;0.47;;
74241;SDS011;62599;49.146;10.426;2023-03-23T03:16:34;2.30;;;0.60;;
74241;SDS011;62599;49.146;10.426;2023-03-23T03:19:10;1.27;;;0.65;;
74241;SDS011;62599;49.146;10.426;2023-03-23T03:21:41;1.05;;;0.75;;
74241;SDS011;62599;49.146;10.426;2023-03-23T03:24:09;2.05;;;1.42;;
74241;SDS011;62599;49.146;10.426;2023-03-23T03:26:40;1.05;;;0.50;;
74241;SDS011;62599;49.146;10.426;2023-03-23T03:29:20;1.42;;;0.77;;
74241;SDS011;62599;49.146;10.426;2023-03-23T03:31:48;0.95;;;0.50;;
74241;SDS011;62599;49.146;10.426;2023-03-23T03:34:16;1.65;;;0.63;;
74241;SDS011;62599;49.146;10.426;2023-03-23T03:36:43;1.25;;;0.43;;
74241;SDS011;62599;49.146;10.426;2023-03-23T03:39:14;1.85;;;0.60;;
74241;SDS011;62599;49.146;10.426;2023-03-23T03:41:40;0.90;;;0.50;;
74241;SDS011;62599;49.146;10.426;2023-03-23T03:44:06;0.70;;;0.55;;
74241;SDS011;62599;49.146;10.426;2023-03-23T03:46:33;3.60;;;0.70;;
74241;SDS011;62599;49.146;10.426;2023-03-23T03:49:00;0.82;;;0.70;;
74241;SDS011;62599;49.146;10.426;2023-03-23T03:51:28;1.13;;;0.98;;
74241;SDS011;62599;49.146;10.426;2023-03-23T03:53:55;1.27;;;0.60;;
74241;SDS011;62599;49.146;10.426;2023-03-23T03:56:23;0.75;;;0.55;;
74241;SDS011;62599;49.146;10.426;2023-03-23T03:58:50;1.40;;;0.50;;
74241;SDS011;62599;49.146;10.426;2023-03-23T04:01:16;1.03;;;0.50;;
74241;SDS011;62599;49.146;10.426;2023-03-23T04:03:43;1.05;;;0.38;;
74241;SDS011;62599;49.146;10.426;2023-03-23T04:06:09;1.08;;;0.77;;
74241;SDS011;62599;49.146;10.426;2023-03-23T04:08:39;1.90;;;0.85;;
74241;SDS011;62599;49.146;10.426;2023-03-23T04:11:06;1.98;;;0.70;;
74241;SDS011;62599;49.146;10.426;2023-03-23T04:13:34;0.43;;;0.38;;
74241;SDS011;62599;49.146;10.426;2023-03-23T04:16:00;0.65;;;0.30;;
74241;SDS011;62599;49.146;10.426;2023-03-23T04:18:25;1.45;;;0.50;;
74241;SDS011;62599;49.146;10.426;2023-03-23T04:20:51;1.65;;;0.63;;
74241;SDS011;62599;49.146;10.426;2023-03-23T04:23:17;7.77;;;0.73;;
74241;SDS011;62599;49.146;10.426;2023-03-23T04:25:47;1.60;;;0.55;;
74241;SDS011;62599;49.146;10.426;2023-03-23T04:28:14;1.23;;;0.43;;
74241;SDS011;62599;49.146;10.426;2023-03-23T04:30:43;1.08;;;0.57;;
74241;SDS011;62599;49.146;10.426;2023-03-23T04:33:10;2.38;;;0.75;;
74241;SDS011;62599;49.146;10.426;2023-03-23T04:35:40;7.25;;;0.60;;
74241;SDS011;62599;49.146;10.426;2023-03-23T04:38:07;1.33;;;0.80;;
74241;SDS011;62599;49.146;10.426;2023-03-23T04:40:37;1.88;;;0.57;;
74241;SDS011;62599;49.146;10.426;2023-03-23T04:43:04;1.67;;;0.63;;
74241;SDS011;62599;49.146;10.426;2023-03-23T04:45:30;1.40;;;0.63;;
74241;SDS011;62599;49.146;10.426;2023-03-23T04:47:57;2.22;;;0.85;;
74241;SDS011;62599;49.146;10.426;2023-03-23T04:50:22;1.80;;;0.90;;
74241;SDS011;62599;49.146;10.426;2023-03-23T04:52:55;1.50;;;0.82;;
74241;SDS011;62599;49.146;10.426;2023-03-23T04:55:22;1.52;;;0.80;;
74241;SDS011;62599;49.146;10.426;2023-03-23T04:57:49;1.40;;;0.57;;
74241;SDS011;62599;49.146;10.426;2023-03-23T05:00:14;0.80;;;0.40;;
74241;SDS011;62599;49.146;10.426;2023-03-23T05:02:45;1.27;;;0.63;;
74241;SDS011;62599;49.146;10.426;2023-03-23T05:05:12;1.17;;;0.35;;
74241;SDS011;62599;49.146;10.426;2023-03-23T05:07:39;0.98;;;0.68;;
74241;SDS011;62599;49.146;10.426;2023-03-23T05:10:05;3.33;;;0.50;;
74241;SDS011;62599;49.146;10.426;2023-03-23T05:12:33;1.15;;;0.65;;
74241;SDS011;62599;49.146;10.426;2023-03-23T05:15:00;1.85;;;0.60;;
74241;SDS011;62599;49.146;10.426;2023-03-23T05:17:25;1.75;;;0.70;;
74241;SDS011;62599;49.146;10.426;2023-03-23T05:19:51;1.33;;;0.65;;
74241;SDS011;62599;49.146;10.426;2023-03-23T05:22:18;1.08;;;0.52;;
74241;SDS011;62599;49.146;10.426;2023-03-23T05:24:46;0.93;;;0.47;;
74241;SDS011;62599;49.146;10.426;2023-03-23T05:27:16;0.45;;;0.40;;
74241;SDS011;62599;49.146;10.426;2023-03-23T05:29:43;1.98;;;0.90;;
74241;SDS011;62599;49.146;10.426;2023-03-23T05:32:10;1.67;;;0.75;;
74241;SDS011;62599;49.146;10.426;2023-03-23T05:34:39;4.13;;;0.90;;
74241;SDS011;62599;49.146;10.426;2023-03-23T05:37:05;0.93;;;0.50;;
74241;SDS011;62599;49.146;10.426;2023-03-23T05:39:30;1.33;;;0.40;;
74241;SDS011;62599;49.146;10.426;2023-03-23T05:41:57;1.02;;;0.93;;
74241;SDS011;62599;49.146;10.426;2023-03-23T05:44:23;1.90;;;0.68;;
74241;SDS011;62599;49.146;10.426;2023-03-23T05:46:49;1.15;;;0.80;;
74241;SDS011;62599;49.146;10.426;2023-03-23T05:49:15;3.58;;;0.57;;
74241;SDS011;62599;49.146;10.426;2023-03-23T05:51:43;5.20;;;0.70;;
74241;SDS011;62599;49.146;10.426;2023-03-23T05:54:10;1.25;;;0.47;;
74241;SDS011;62599;49.146;10.426;2023-03-23T05:56:36;1.73;;;0.95;;
74241;SDS011;62599;49.146;10.426;2023-03-23T05:59:02;1.52;;;0.70;;
74241;SDS011;62599;49.146;10.426;2023-03-23T06:01:27;4.57;;;0.80;;
74241;SDS011;62599;49.146;10.426;2023-03-23T06:03:53;1.67;;;0.70;;
74241;SDS011;62599;49.146;10.426;2023-03-23T06:06:22;1.27;;;0.90;;
74241;SDS011;62599;49.146;10.426;2023-03-23T06:08:47;3.00;;;1.20;;
74241;SDS011;62599;49.146;10.426;2023-03-23T06:11:15;2.40;;;0.93;;
74241;SDS011;62599;49.146;10.426;2023-03-23T06:13:40;0.82;;;0.65;;
74241;SDS011;62599;49.146;10.426;2023-03-23T06:16:06;2.25;;;0.65;;
74241;SDS011;62599;49.146;10.426;2023-03-23T06:18:33;0.98;;;0.57;;
74241;SDS011;62599;49.146;10.426;2023-03-23T06:21:01;2.40;;;0.73;;
74241;SDS011;62599;49.146;10.426;2023-03-23T06:23:30;2.15;;;0.77;;
74241;SDS011;62599;49.146;10.426;2023-03-23T06:25:57;1.27;;;0.95;;
74241;SDS011;62599;49.146;10.426;2023-03-23T06:28:25;1.75;;;1.00;;
74241;SDS011;62599;49.146;10.426;2023-03-23T06:30:51;0.82;;;0.50;;
74241;SDS011;62599;49.146;10.426;2023-03-23T06:33:17;1.25;;;0.75;;
74241;SDS011;62599;49.146;10.426;2023-03-23T06:35:43;9.07;;;1.05;;
74241;SDS011;62599;49.146;10.426;2023-03-23T06:38:09;6.03;;;0.93;;
74241;SDS011;62599;49.146;10.426;2023-03-23T06:40:35;1.55;;;0.75;;
74241;SDS011;62599;49.146;10.426;2023-03-23T06:43:11;1.15;;;0.90;;
74241;SDS011;62599;49.146;10.426;2023-03-23T06:45:40;1.45;;;1.10;;
74241;SDS011;62599;49.146;10.426;2023-03-23T06:48:05;0.98;;;0.60;;
74241;SDS011;62599;49.146;10.426;2023-03-23T06:50:31;2.78;;;0.90;;
74241;SDS011;62599;49.146;10.426;2023-03-23T06:52:57;2.03;;;0.85;;
74241;SDS011;62599;49.146;10.426;2023-03-23T06:55:22;1.30;;;0.90;;
74241;SDS011;62599;49.146;10.426;2023-03-23T06:57:48;0.97;;;0.63;;
74241;SDS011;62599;49.146;10.426;2023-03-23T07:00:13;1.13;;;0.95;;
74241;SDS011;62599;49.146;10.426;2023-03-23T07:02:40;1.70;;;1.02;;
74241;SDS011;62599;49.146;10.426;2023-03-23T07:05:06;2.70;;;0.88;;
74241;SDS011;62599;49.146;10.426;2023-03-23T07:07:36;2.47;;;1.23;;
74241;SDS011;62599;49.146;10.426;2023-03-23T07:10:06;2.25;;;1.10;;
74241;SDS011;62599;49.146;10.426;2023-03-23T07:12:34;1.20;;;0.73;;
74241;SDS011;62599;49.146;10.426;2023-03-23T07:15:00;1.80;;;0.82;;
74241;SDS011;62599;49.146;10.426;2023-03-23T07:17:27;1.05;;;0.50;;
74241;SDS011;62599;49.146;10.426;2023-03-23T07:19:53;0.85;;;0.60;;
74241;SDS011;62599;49.146;10.426;2023-03-23T07:22:18;2.10;;;0.75;;
74241;SDS011;62599;49.146;10.426;2023-03-23T07:24:47;1.98;;;0.57;;
74241;SDS011;62599;49.146;10.426;2023-03-23T07:27:13;1.10;;;0.82;;
74241;SDS011;62599;49.146;10.426;2023-03-23T07:29:38;0.80;;;0.75;;
74241;SDS011;62599;49.146;10.426;2023-03-23T07:32:05;2.05;;;1.13;;
74241;SDS011;62599;49.146;10.426;2023-03-23T07:34:31;0.75;;;0.52;;
74241;SDS011;62599;49.146;10.426;2023-03-23T07:36:57;1.45;;;0.40;;
74241;SDS011;62599;49.146;10.426;2023-03-23T07:39:23;1.42;;;0.47;;
74241;SDS011;62599;49.146;10.426;2023-03-23T07:41:49;1.38;;;1.20;;
74241;SDS011;62599;49.146;10.426;2023-03-23T07:44:15;2.15;;;0.75;;
74241;SDS011;62599;49.146;10.426;2023-03-23T07:46:41;0.73;;;0.55;;
74241;SDS011;62599;49.146;10.426;2023-03-23T07:49:07;1.88;;;0.68;;
74241;SDS011;62599;49.146;10.426;2023-03-23T07:51:34;1.58;;;0.60;;
74241;SDS011;62599;49.146;10.426;2023-03-23T07:54:00;0.82;;;0.65;;
74241;SDS011;62599;49.146;10.426;2023-03-23T07:56:27;0.90;;;0.60;;
74241;SDS011;62599;49.146;10.426;2023-03-23T07:58:54;1.00;;;0.82;;
74241;SDS011;62599;49.146;10.426;2023-03-23T08:01:19;1.30;;;0.68;;
74241;SDS011;62599;49.146;10.426;2023-03-23T08:03:45;0.70;;;0.55;;
74241;SDS011;62599;49.146;10.426;2023-03-23T08:06:10;1.87;;;0.83;;
74241;SDS011;62599;49.146;10.426;2023-03-23T08:08:36;2.47;;;1.17;;
74241;SDS011;62599;49.146;10.426;2023-03-23T08:11:02;0.90;;;0.65;;
74241;SDS011;62599;49.146;10.426;2023-03-23T08:13:28;2.20;;;0.70;;
74241;SDS011;62599;49.146;10.426;2023-03-23T08:15:53;3.57;;;0.73;;
74241;SDS011;62599;49.146;10.426;2023-03-23T08:18:18;1.55;;;0.52;;
74241;SDS011;62599;49.146;10.426;2023-03-23T08:20:44;0.98;;;0.65;;
74241;SDS011;62599;49.146;10.426;2023-03-23T08:23:09;1.35;;;0.52;;
74241;SDS011;62599;49.146;10.426;2023-03-23T08:25:39;1.10;;;0.77;;
74241;SDS011;62599;49.146;10.426;2023-03-23T08:28:06;0.68;;;0.43;;
74241;SDS011;62599;49.146;10.426;2023-03-23T08:30:31;0.95;;;0.63;;
74241;SDS011;62599;49.146;10.426;2023-03-23T08:32:58;1.50;;;1.02;;
74241;SDS011;62599;49.146;10.426;2023-03-23T08:35:25;2.33;;;1.45;;
74241;SDS011;62599;49.146;10.426;2023-03-23T08:37:51;1.30;;;1.00;;
74241;SDS011;62599;49.146;10.426;2023-03-23T08:40:18;4.13;;;1.50;;
74241;SDS011;62599;49.146;10.426;2023-03-23T08:42:46;1.50;;;0.57;;
74241;SDS011;62599;49.146;10.426;2023-03-23T08:45:14;3.97;;;0.90;;
74241;SDS011;62599;49.146;10.426;2023-03-23T08:47:41;0.98;;;0.60;;
74241;SDS011;62599;49.146;10.426;2023-03-23T08:50:09;3.40;;;0.85;;
74241;SDS011;62599;49.146;10.426;2023-03-23T08:52:40;1.63;;;0.70;;
74241;SDS011;62599;49.146;10.426;2023-03-23T08:55:06;1.90;;;0.73;;
74241;SDS011;62599;49.146;10.426;2023-03-23T08:57:34;1.50;;;0.80;;
74241;SDS011;62599;49.146;10.426;2023-03-23T09:00:01;0.73;;;0.57;;
74241;SDS011;62599;49.146;10.426;2023-03-23T09:02:38;1.52;;;0.98;;
74241;SDS011;62599;49.146;10.426;2023-03-23T09:05:03;1.08;;;0.90;;
74241;SDS011;62599;49.146;10.426;2023-03-23T09:07:29;4.30;;;1.30;;
74241;SDS011;62599;49.146;10.426;2023-03-23T09:09:54;2.33;;;0.93;;
74241;SDS011;62599;49.146;10.426;2023-03-23T09:12:20;4.70;;;1.55;;
74241;SDS011;62599;49.146;10.426;2023-03-23T09:14:45;2.30;;;1.02;;
74241;SDS011;62599;49.146;10.426;2023-03-23T09:17:11;2.07;;;1.33;;
74241;SDS011;62599;49.146;10.426;2023-03-23T09:19:36;2.15;;;1.20;;
74241;SDS011;62599;49.146;10.426;2023-03-23T09:22:02;1.05;;;0.82;;
74241;SDS011;62599;49.146;10.426;2023-03-23T09:24:28;1.00;;;0.80;;
74241;SDS011;62599;49.146;10.426;2023-03-23T09:26:57;2.00;;;0.73;;
74241;SDS011;62599;49.146;10.426;2023-03-23T09:29:23;2.15;;;0.90;;
74241;SDS011;62599;49.146;10.426;2023-03-23T09:31:50;6.53;;;0.60;;
74241;SDS011;62599;49.146;10.426;2023-03-23T09:34:15;1.25;;;0.93;;
74241;SDS011;62599;49.146;10.426;2023-03-23T09:36:44;1.33;;;0.80;;
74241;SDS011;62599;49.146;10.426;2023-03-23T09:39:11;1.98;;;1.23;;
74241;SDS011;62599;49.146;10.426;2023-03-23T09:44:23;1.52;;;0.73;;
74241;SDS011;62599;49.146;10.426;2023-03-23T09:49:32;4.28;;;1.52;;
74241;SDS011;62599;49.146;10.426;2023-03-23T09:54:37;5.07;;;1.63;;
74241;SDS011;62599;49.146;10.426;2023-03-23T09:57:11;6.03;;;2.40;;
74241;SDS011;62599;49.146;10.426;2023-03-23T10:00:25;4.53;;;1.98;;
74241;SDS011;62599;49.146;10.426;2023-03-23T10:02:48;6.25;;;1.77;;
74241;SDS011;62599;49.146;10.426;2023-03-23T10:05:30;1.85;;;1.15;;
74241;SDS011;62599;49.146;10.426;2023-03-23T10:07:56;2.08;;;1.48;;
74241;SDS011;62599;49.146;10.426;2023-03-23T10:13:23;3.60;;;1.13;;
74241;SDS011;62599;49.146;10.426;2023-03-23T10:16:28;1.63;;;0.95;;
74241;SDS011;62599;49.146;10.426;2023-03-23T10:22:04;2.58;;;1.50;;
74241;SDS011;62599;49.146;10.426;2023-03-23T10:27:17;2.25;;;0.95;;
74241;SDS011;62599;49.146;10.426;2023-03-23T10:30:33;1.73;;;0.93;;
74241;SDS011;62599;49.146;10.426;2023-03-23T10:32:45;4.13;;;1.83;;
74241;SDS011;62599;49.146;10.426;2023-03-23T10:35:59;1.05;;;0.70;;
74241;SDS011;62599;49.146;10.426;2023-03-23T10:38:14;7.95;;;2.25;;
74241;SDS011;62599;49.146;10.426;2023-03-23T10:40:47;3.60;;;1.55;;
74241;SDS011;62599;49.146;10.426;2023-03-23T10:43:15;4.22;;;1.73;;
74241;SDS011;62599;49.146;10.426;2023-03-23T10:45:42;1.05;;;0.88;;
74241;SDS011;62599;49.146;10.426;2023-03-23T10:48:16;5.90;;;2.72;;
74241;SDS011;62599;49.146;10.426;2023-03-23T10:50:46;8.07;;;2.50;;
74241;SDS011;62599;49.146;10.426;2023-03-23T10:53:16;2.28;;;0.98;;
74241;SDS011;62599;49.146;10.426;2023-03-23T10:55:46;1.63;;;1.00;;
74241;SDS011;62599;49.146;10.426;2023-03-23T10:58:21;2.35;;;1.27;;
74241;SDS011;62599;49.146;10.426;2023-03-23T11:01:01;2.95;;;1.17;;
74241;SDS011;62599;49.146;10.426;2023-03-23T11:06:09;2.75;;;1.15;;
74241;SDS011;62599;49.146;10.426;2023-03-23T11:08:47;5.00;;;1.98;;
74241;SDS011;62599;49.146;10.426;2023-03-23T11:11:20;1.90;;;1.27;;
74241;SDS011;62599;49.146;10.426;2023-03-23T11:14:00;1.88;;;0.75;;
74241;SDS011;62599;49.146;10.426;2023-03-23T11:16:56;1.45;;;0.85;;
74241;SDS011;62599;49.146;10.426;2023-03-23T11:19:28;1.60;;;0.70;;
74241;SDS011;62599;49.146;10.426;2023-03-23T11:22:06;1.45;;;0.98;;
74241;SDS011;62599;49.146;10.426;2023-03-23T11:24:34;18.02;;;8.40;;
74241;SDS011;62599;49.146;10.426;2023-03-23T11:27:02;3.58;;;1.13;;
74241;SDS011;62599;49.146;10.426;2023-03-23T11:29:32;2.28;;;1.23;;
74241;SDS011;62599;49.146;10.426;2023-03-23T11:34:25;3.50;;;0.87;;
74241;SDS011;62599;49.146;10.426;2023-03-23T11:36:57;1.30;;;1.20;;
74241;SDS011;62599;49.146;10.426;2023-03-23T11:39:28;2.60;;;1.02;;
74241;SDS011;62599;49.146;10.426;2023-03-23T11:41:54;1.67;;;1.05;;
74241;SDS011;62599;49.146;10.426;2023-03-23T11:44:22;3.35;;;1.08;;
74241;SDS011;62599;49.146;10.426;2023-03-23T11:46:58;1.52;;;1.23;;
74241;SDS011;62599;49.146;10.426;2023-03-23T11:52:09;2.70;;;1.17;;
74241;SDS011;62599;49.146;10.426;2023-03-23T11:54:44;9.45;;;0.95;;
74241;SDS011;62599;49.146;10.426;2023-03-23T11:57:16;2.65;;;0.90;;
74241;SDS011;62599;49.146;10.426;2023-03-23T11:59:41;1.63;;;1.52;;
74241;SDS011;62599;49.146;10.426;2023-03-23T12:05:37;1.85;;;1.02;;
74241;SDS011;62599;49.146;10.426;2023-03-23T12:08:00;3.38;;;0.88;;
74241;SDS011;62599;49.146;10.426;2023-03-23T12:16:11;1.08;;;0.73;;
74241;SDS011;62599;49.146;10.426;2023-03-23T12:19:08;0.57;;;0.52;;
74241;SDS011;62599;49.146;10.426;2023-03-23T12:26:52;0.63;;;0.60;;
74241;SDS011;62599;49.146;10.426;2023-03-23T12:29:35;0.60;;;0.47;;
74241;SDS011;62599;49.146;10.426;2023-03-23T12:35:09;0.70;;;0.50;;
74241;SDS011;62599;49.146;10.426;2023-03-23T12:37:45;1.02;;;0.65;;
74241;SDS011;62599;49.146;10.426;2023-03-23T12:42:59;1.38;;;0.73;;
74241;SDS011;62599;49.146;10.426;2023-03-23T12:48:12;1.05;;;0.82;;
74241;SDS011;62599;49.146;10.426;2023-03-23T12:53:54;1.30;;;0.68;;
74241;SDS011;62599;49.146;10.426;2023-03-23T12:56:26;1.45;;;0.90;;
74241;SDS011;62599;49.146;10.426;2023-03-23T12:59:07;0.52;;;0.43;;
74241;SDS011;62599;49.146;10.426;2023-03-23T13:01:43;3.38;;;0.50;;
74241;SDS011;62599;49.146;10.426;2023-03-23T13:04:22;1.17;;;0.75;;
74241;SDS011;62599;49.146;10.426;2023-03-23T13:06:52;2.08;;;0.70;;
74241;SDS011;62599;49.146;10.426;2023-03-23T13:12:04;0.85;;;0.47;;
74241;SDS011;62599;49.146;10.426;2023-03-23T13:17:24;2.28;;;1.02;;
74241;SDS011;62599;49.146;10.426;2023-03-23T13:22:26;1.13;;;0.82;;
74241;SDS011;62599;49.146;10.426;2023-03-23T13:25:02;1.40;;;0.70;;
74241;SDS011;62599;49.146;10.426;2023-03-23T13:27:34;2.08;;;0.73;;
74241;SDS011;62599;49.146;10.426;2023-03-23T13:30:00;1.17;;;1.00;;
74241;SDS011;62599;49.146;10.426;2023-03-23T13:32:37;2.92;;;0.70;;
74241;SDS011;62599;49.146;10.426;2023-03-23T13:35:05;1.58;;;0.82;;
74241;SDS011;62599;49.146;10.426;2023-03-23T13:37:44;1.15;;;0.93;;
74241;SDS011;62599;49.146;10.426;2023-03-23T13:43:10;1.92;;;0.88;;
74241;SDS011;62599;49.146;10.426;2023-03-23T13:45:42;1.30;;;0.90;;
74241;SDS011;62599;49.146;10.426;2023-03-23T13:51:21;1.77;;;1.00;;
74241;SDS011;62599;49.146;10.426;2023-03-23T13:53:48;1.52;;;0.90;;
74241;SDS011;62599;49.146;10.426;2023-03-23T13:56:21;0.95;;;0.80;;
74241;SDS011;62599;49.146;10.426;2023-03-23T13:59:13;0.95;;;0.60;;
74241;SDS011;62599;49.146;10.426;2023-03-23T14:01:41;1.95;;;1.05;;
74241;SDS011;62599;49.146;10.426;2023-03-23T14:04:10;1.48;;;1.00;;
74241;SDS011;62599;49.146;10.426;2023-03-23T14:06:43;4.20;;;0.80;;
74241;SDS011;62599;49.146;10.426;2023-03-23T14:09:20;1.80;;;1.10;;
74241;SDS011;62599;49.146;10.426;2023-03-23T14:11:56;1.13;;;1.02;;
74241;SDS011;62599;49.146;10.426;2023-03-23T14:14:29;1.83;;;0.75;;
74241;SDS011;62599;49.146;10.426;2023-03-23T14:17:11;1.83;;;0.85;;
74241;SDS011;62599;49.146;10.426;2023-03-23T14:19:39;1.25;;;0.85;;
74241;SDS011;62599;49.146;10.426;2023-03-23T14:22:26;1.77;;;0.90;;
74241;SDS011;62599;49.146;10.426;2023-03-23T14:25:11;1.42;;;0.70;;
74241;SDS011;62599;49.146;10.426;2023-03-23T14:27:37;1.52;;;1.05;;
74241;SDS011;62599;49.146;10.426;2023-03-23T14:30:07;2.78;;;1.23;;
74241;SDS011;62599;49.146;10.426;2023-03-23T14:32:34;2.80;;;1.08;;
74241;SDS011;62599;49.146;10.426;2023-03-23T14:35:23;5.03;;;0.82;;
74241;SDS011;62599;49.146;10.426;2023-03-23T14:37:51;1.95;;;1.02;;
74241;SDS011;62599;49.146;10.426;2023-03-23T14:40:17;1.50;;;0.85;;
74241;SDS011;62599;49.146;10.426;2023-03-23T14:42:43;1.40;;;0.98;;
74241;SDS011;62599;49.146;10.426;2023-03-23T14:45:11;1.25;;;0.98;;
74241;SDS011;62599;49.146;10.426;2023-03-23T14:47:42;1.45;;;0.85;;
74241;SDS011;62599;49.146;10.426;2023-03-23T14:50:23;5.78;;;1.02;;
74241;SDS011;62599;49.146;10.426;2023-03-23T14:52:49;7.65;;;1.02;;
74241;SDS011;62599;49.146;10.426;2023-03-23T14:57:45;1.10;;;0.80;;
74241;SDS011;62599;49.146;10.426;2023-03-23T15:02:45;1.08;;;0.88;;
74241;SDS011;62599;49.146;10.426;2023-03-23T15:05:36;1.42;;;0.73;;
74241;SDS011;62599;49.146;10.426;2023-03-23T15:08:05;1.52;;;0.80;;
74241;SDS011;62599;49.146;10.426;2023-03-23T15:10:32;1.40;;;0.80;;
74241;SDS011;62599;49.146;10.426;2023-03-23T15:12:58;2.38;;;1.00;;
74241;SDS011;62599;49.146;10.426;2023-03-23T15:15:27;4.25;;;1.15;;
74241;SDS011;62599;49.146;10.426;2023-03-23T15:17:55;1.98;;;1.10;;
74241;SDS011;62599;49.146;10.426;2023-03-23T15:20:28;1.77;;;1.13;;
74241;SDS011;62599;49.146;10.426;2023-03-23T15:22:56;1.33;;;1.00;;
74241;SDS011;62599;49.146;10.426;2023-03-23T15:25:30;2.08;;;1.40;;
74241;SDS011;62599;49.146;10.426;2023-03-23T15:30:31;1.42;;;0.90;;
74241;SDS011;62599;49.146;10.426;2023-03-23T15:33:03;2.05;;;1.02;;
74241;SDS011;62599;49.146;10.426;2023-03-23T15:35:35;2.20;;;1.45;;
74241;SDS011;62599;49.146;10.426;2023-03-23T15:38:12;2.25;;;1.48;;
74241;SDS011;62599;49.146;10.426;2023-03-23T15:40:55;3.97;;;1.33;;
74241;SDS011;62599;49.146;10.426;2023-03-23T15:43:37;9.05;;;2.80;;
74241;SDS011;62599;49.146;10.426;2023-03-23T15:51:15;2.22;;;0.93;;
74241;SDS011;62599;49.146;10.426;2023-03-23T15:53:42;3.80;;;2.05;;
74241;SDS011;62599;49.146;10.426;2023-03-23T15:56:08;11.02;;;4.18;;
74241;SDS011;62599;49.146;10.426;2023-03-23T15:58:35;7.57;;;3.60;;
74241;SDS011;62599;49.146;10.426;2023-03-23T16:01:43;5.72;;;2.83;;
74241;SDS011;62599;49.146;10.426;2023-03-23T16:06:18;5.30;;;1.63;;
74241;SDS011;62599;49.146;10.426;2023-03-23T16:08:46;5.15;;;2.42;;
74241;SDS011;62599;49.146;10.426;2023-03-23T16:11:12;4.07;;;2.17;;
74241;SDS011;62599;49.146;10.426;2023-03-23T16:13:39;3.13;;;1.65;;
74241;SDS011;62599;49.146;10.426;2023-03-23T16:16:05;3.78;;;1.63;;
74241;SDS011;62599;49.146;10.426;2023-03-23T16:18:36;2.22;;;1.20;;
74241;SDS011;62599;49.146;10.426;2023-03-23T16:21:02;7.57;;;2.65;;
74241;SDS011;62599;49.146;10.426;2023-03-23T16:23:27;4.95;;;2.15;;
74241;SDS011;62599;49.146;10.426;2023-03-23T16:25:53;41.28;;;13.52;;
74241;SDS011;62599;49.146;10.426;2023-03-23T16:28:21;44.28;;;12.00;;
74241;SDS011;62599;49.146;10.426;2023-03-23T16:30:46;20.48;;;7.22;;
74241;SDS011;62599;49.146;10.426;2023-03-23T16:33:13;6.57;;;2.35;;
74241;SDS011;62599;49.146;10.426;2023-03-23T16:35:38;4.95;;;2.00;;